Time;durP1;ratioP1;P1;durP2;ratioP2;P2;SDS_P1;SDS_P2;PMS_P1;PMS_P2;Temp;Humidity;BMP_temperature;BMP_pressure;BME280_temperature;BME280_humidity;BME280_pressure;Samples;Min_cycle;Max_cycle;Signal;HPM_P1;HPM_P2
2024/01/21 00:02:24;;;;;;;5.47;1.60;;;1.60;99.90;;;;;;5046241;28;20033;-93
2024/01/21 00:04:49;;;;;;;4.70;2.20;;;1.60;99.90;;;;;;5044783;28;20120;-93
2024/01/21 00:07:15;;;;;;;4.68;1.95;;;1.60;99.90;;;;;;5043828;28;20059;-94
2024/01/21 00:09:41;;;;;;;5.03;2.40;;;1.70;99.90;;;;;;5046999;28;20040;-93
2024/01/21 00:12:08;;;;;;;6.40;2.20;;;1.70;99.90;;;;;;5044911;28;20032;-94
2024/01/21 00:14:36;;;;;;;5.63;1.73;;;1.70;99.90;;;;;;5038470;28;20561;-93
2024/01/21 00:17:07;;;;;;;5.05;2.05;;;1.70;99.90;;;;;;5037532;28;20441;-93
2024/01/21 00:19:35;;;;;;;2.83;1.90;;;1.70;99.90;;;;;;5040168;28;20048;-93
2024/01/21 00:22:02;;;;;;;4.55;2.15;;;1.70;99.90;;;;;;5041127;28;20131;-94
2024/01/21 00:24:32;;;;;;;4.53;1.98;;;1.70;99.90;;;;;;5064781;28;20063;-92
2024/01/21 00:27:01;;;;;;;5.68;2.40;;;1.70;99.90;;;;;;5046470;28;20112;-93
2024/01/21 00:29:30;;;;;;;2.92;1.48;;;1.70;99.90;;;;;;5070004;28;20039;-93
2024/01/21 00:32:00;;;;;;;5.35;2.10;;;1.80;99.90;;;;;;5054895;28;20043;-92
2024/01/21 00:34:29;;;;;;;3.58;1.63;;;1.70;99.90;;;;;;5051410;28;20082;-92
2024/01/21 00:37:01;;;;;;;4.97;2.25;;;1.70;99.90;;;;;;5045671;28;20260;-93
2024/01/21 00:39:27;;;;;;;8.15;2.15;;;1.70;99.90;;;;;;5052492;28;20043;-93
2024/01/21 00:41:55;;;;;;;3.35;1.73;;;1.70;99.90;;;;;;5042024;28;20049;-93
2024/01/21 00:44:21;;;;;;;4.78;1.98;;;1.70;99.90;;;;;;5039611;28;20145;-92
2024/01/21 00:46:47;;;;;;;4.47;2.15;;;1.70;99.90;;;;;;5036053;28;20464;-93
2024/01/21 00:49:16;;;;;;;6.18;2.15;;;1.70;99.90;;;;;;5042413;28;20111;-93
2024/01/21 00:51:42;;;;;;;5.03;1.98;;;1.70;99.90;;;;;;5054896;28;20038;-92
2024/01/21 00:54:08;;;;;;;4.03;1.63;;;1.70;99.90;;;;;;5050446;28;20056;-92
2024/01/21 00:56:39;;;;;;;6.72;2.28;;;1.70;99.90;;;;;;5042859;28;20068;-92
2024/01/21 00:59:05;;;;;;;3.42;2.13;;;1.70;99.90;;;;;;5051009;28;20033;-93
2024/01/21 01:01:30;;;;;;;3.78;1.60;;;1.70;99.90;;;;;;5042029;28;20043;-93
2024/01/21 01:03:56;;;;;;;4.30;2.30;;;1.70;99.90;;;;;;5043171;28;20067;-92
2024/01/21 01:06:23;;;;;;;6.45;2.28;;;1.70;99.90;;;;;;5060066;28;20041;-93
2024/01/21 01:08:50;;;;;;;5.03;1.70;;;1.70;99.90;;;;;;5044039;28;20046;-94
2024/01/21 01:11:15;;;;;;;4.03;1.80;;;1.70;99.90;;;;;;5037474;28;20036;-92
2024/01/21 01:13:41;;;;;;;4.10;1.98;;;1.70;99.90;;;;;;5054671;28;20075;-91
2024/01/21 01:16:07;;;;;;;5.82;2.15;;;1.70;99.90;;;;;;5036023;28;20055;-92
2024/01/21 01:18:33;;;;;;;6.07;2.10;;;1.80;99.90;;;;;;5070777;28;20309;-93
2024/01/21 01:20:58;;;;;;;6.47;1.83;;;1.80;99.90;;;;;;5038990;28;20542;-92
2024/01/21 01:23:24;;;;;;;3.63;1.42;;;1.70;99.90;;;;;;5047373;28;20124;-92
2024/01/21 01:25:50;;;;;;;3.50;1.35;;;1.80;99.90;;;;;;5041500;28;20375;-93
2024/01/21 01:28:17;;;;;;;5.80;1.63;;;1.70;99.90;;;;;;5035864;28;20401;-93
2024/01/21 01:30:43;;;;;;;3.55;1.67;;;1.80;99.90;;;;;;5065679;28;20091;-94
2024/01/21 01:33:09;;;;;;;3.22;1.65;;;1.80;99.90;;;;;;5038810;28;20106;-94
2024/01/21 01:35:35;;;;;;;5.82;1.40;;;1.80;99.90;;;;;;5052099;28;20382;-93
2024/01/21 01:38:05;;;;;;;2.53;1.00;;;1.70;99.90;;;;;;5049277;28;20038;-93
2024/01/21 01:40:31;;;;;;;2.28;1.15;;;1.80;99.90;;;;;;5046809;28;20040;-92
2024/01/21 01:43:02;;;;;;;4.88;1.27;;;1.80;99.90;;;;;;5044372;28;20043;-93
2024/01/21 01:45:30;;;;;;;2.40;1.25;;;1.80;99.90;;;;;;5042408;28;20523;-92
2024/01/21 01:47:57;;;;;;;3.47;1.65;;;1.80;99.90;;;;;;5059458;28;20032;-93
2024/01/21 01:50:28;;;;;;;6.95;2.22;;;1.80;99.90;;;;;;5045393;28;20032;-92
2024/01/21 01:52:54;;;;;;;6.03;2.13;;;1.80;99.90;;;;;;5051921;28;20108;-92
2024/01/21 01:55:20;;;;;;;3.92;1.48;;;1.80;99.90;;;;;;5052572;28;20089;-92
2024/01/21 01:57:46;;;;;;;2.42;1.38;;;1.80;99.90;;;;;;5047880;28;20040;-93
2024/01/21 02:00:13;;;;;;;3.75;1.20;;;1.80;99.90;;;;;;5037189;28;20047;-92
2024/01/21 02:02:40;;;;;;;3.40;1.30;;;1.80;99.90;;;;;;5047053;28;20037;-93
2024/01/21 02:05:07;;;;;;;2.13;1.17;;;1.80;99.90;;;;;;5039651;28;20100;-93
2024/01/21 02:07:33;;;;;;;3.97;1.58;;;1.80;99.90;;;;;;5036086;28;20403;-92
2024/01/21 02:10:01;;;;;;;2.30;1.30;;;1.90;99.90;;;;;;5040160;28;20082;-92
2024/01/21 02:12:27;;;;;;;3.88;1.05;;;1.90;99.90;;;;;;5041092;28;20446;-93
2024/01/21 02:14:53;;;;;;;4.00;1.00;;;1.90;99.90;;;;;;5055114;28;20478;-92
2024/01/21 02:17:22;;;;;;;1.75;1.00;;;1.90;99.90;;;;;;5038164;28;20036;-91
2024/01/21 02:19:49;;;;;;;2.70;0.82;;;1.90;99.90;;;;;;5039886;28;20067;-93
2024/01/21 02:22:15;;;;;;;2.78;1.05;;;1.90;99.90;;;;;;5036117;28;20033;-94
2024/01/21 02:24:40;;;;;;;3.42;1.05;;;1.90;99.90;;;;;;5039405;28;20123;-93
2024/01/21 02:27:08;;;;;;;3.75;0.98;;;1.90;99.90;;;;;;5062452;28;20112;-92
2024/01/21 02:29:35;;;;;;;5.68;1.10;;;1.90;99.90;;;;;;5037330;28;20044;-92
2024/01/21 02:32:00;;;;;;;1.90;0.77;;;1.90;99.90;;;;;;5051445;28;20032;-92
2024/01/21 02:34:27;;;;;;;2.05;0.85;;;1.90;99.90;;;;;;5037502;28;20041;-93
2024/01/21 02:36:53;;;;;;;5.63;1.15;;;1.90;99.90;;;;;;5051952;28;20047;-92
2024/01/21 02:39:19;;;;;;;1.20;0.60;;;1.90;99.90;;;;;;5044388;28;20413;-93
2024/01/21 02:41:45;;;;;;;4.05;0.80;;;1.90;99.90;;;;;;5055316;28;20043;-93
2024/01/21 02:44:11;;;;;;;2.40;1.17;;;1.90;99.90;;;;;;5045851;28;20379;-92
2024/01/21 02:46:39;;;;;;;2.60;1.08;;;2.00;99.90;;;;;;5050016;28;20032;-92
2024/01/21 02:49:05;;;;;;;1.10;0.68;;;1.90;99.90;;;;;;5042300;28;20453;-91
2024/01/21 02:51:31;;;;;;;1.85;0.80;;;2.00;99.90;;;;;;5037868;28;20043;-92
2024/01/21 02:53:57;;;;;;;2.35;0.80;;;2.00;99.90;;;;;;5057796;28;20059;-93
2024/01/21 02:56:26;;;;;;;2.20;1.00;;;2.00;99.90;;;;;;5043105;28;20080;-92
2024/01/21 02:58:53;;;;;;;1.67;0.70;;;2.00;99.90;;;;;;5045317;28;20033;-91
2024/01/21 03:01:20;;;;;;;1.58;0.82;;;2.00;99.90;;;;;;5042403;28;20074;-93
2024/01/21 03:03:46;;;;;;;1.10;0.60;;;2.00;99.90;;;;;;5035185;28;20624;-92
2024/01/21 03:06:12;;;;;;;3.45;1.10;;;2.00;99.90;;;;;;5059149;28;20159;-92
2024/01/21 03:08:38;;;;;;;2.03;0.70;;;2.00;99.90;;;;;;5036055;28;20032;-93
2024/01/21 03:11:04;;;;;;;1.65;0.85;;;2.10;99.90;;;;;;5038407;28;20454;-93
2024/01/21 03:13:30;;;;;;;1.80;0.60;;;2.10;99.90;;;;;;5034726;28;20055;-93
2024/01/21 03:15:56;;;;;;;0.50;0.40;;;2.10;99.90;;;;;;5049919;28;20033;-92
2024/01/21 03:18:22;;;;;;;0.98;0.40;;;2.10;99.90;;;;;;5042915;28;20054;-91
2024/01/21 03:20:47;;;;;;;2.20;0.47;;;2.10;99.90;;;;;;5042451;28;20041;-92
2024/01/21 03:23:14;;;;;;;1.88;0.55;;;2.10;99.90;;;;;;5025105;28;20041;-93
2024/01/21 03:25:39;;;;;;;1.55;0.50;;;2.10;99.90;;;;;;5018048;28;20562;-92
2024/01/21 03:28:05;;;;;;;1.30;0.60;;;2.10;99.90;;;;;;5026271;28;20162;-92
2024/01/21 03:30:31;;;;;;;2.67;0.57;;;2.10;99.90;;;;;;5062021;28;20040;-92
2024/01/21 03:32:57;;;;;;;2.10;0.60;;;2.10;99.90;;;;;;5037471;28;20041;-92
2024/01/21 03:35:23;;;;;;;1.23;0.55;;;2.10;99.90;;;;;;5039024;28;20047;-91
2024/01/21 03:37:49;;;;;;;1.02;0.50;;;2.10;99.90;;;;;;5054761;28;20052;-91
2024/01/21 03:40:15;;;;;;;0.60;0.30;;;2.10;99.90;;;;;;5038864;28;20040;-92
2024/01/21 03:42:45;;;;;;;1.20;0.43;;;2.10;99.90;;;;;;5039347;28;20079;-92
2024/01/21 03:45:11;;;;;;;0.93;0.73;;;2.20;99.90;;;;;;5055153;28;20119;-91
2024/01/21 03:47:36;;;;;;;0.73;0.38;;;2.20;99.90;;;;;;5055260;28;20123;-92
2024/01/21 03:50:03;;;;;;;1.15;0.50;;;2.20;99.90;;;;;;5039223;28;20488;-92
2024/01/21 03:52:28;;;;;;;0.57;0.40;;;2.20;99.90;;;;;;5053866;28;20046;-91
2024/01/21 03:54:54;;;;;;;1.25;0.50;;;2.20;99.90;;;;;;5041265;28;20115;-91
2024/01/21 03:57:20;;;;;;;4.75;0.40;;;2.20;99.90;;;;;;5045903;28;20029;-91
2024/01/21 03:59:46;;;;;;;1.58;0.73;;;2.20;99.90;;;;;;5047339;28;20154;-91
2024/01/21 04:02:12;;;;;;;0.80;0.50;;;2.20;99.90;;;;;;5059857;28;20040;-92
2024/01/21 04:04:37;;;;;;;2.55;0.57;;;2.20;99.90;;;;;;5046926;28;20032;-92
2024/01/21 04:07:03;;;;;;;0.98;0.13;;;2.30;99.90;;;;;;5039025;28;20055;-91
2024/01/21 04:09:30;;;;;;;1.52;0.68;;;2.20;99.90;;;;;;5039301;28;20044;-92
2024/01/21 04:11:56;;;;;;;1.02;0.43;;;2.30;99.90;;;;;;5058073;28;20131;-93
2024/01/21 04:14:22;;;;;;;1.08;0.43;;;2.30;99.90;;;;;;5038386;28;20130;-92
2024/01/21 04:16:48;;;;;;;2.38;0.85;;;2.30;99.90;;;;;;5049130;28;20032;-92
2024/01/21 04:19:16;;;;;;;0.93;0.55;;;2.30;99.90;;;;;;5045549;28;20551;-92
2024/01/21 04:21:42;;;;;;;1.27;0.30;;;2.30;99.90;;;;;;5035225;28;20060;-92
2024/01/21 04:24:08;;;;;;;1.58;0.50;;;2.30;99.90;;;;;;5040377;28;20032;-92
2024/01/21 04:26:34;;;;;;;1.25;0.38;;;2.30;99.90;;;;;;5049958;28;20075;-92
2024/01/21 04:28:59;;;;;;;0.77;0.40;;;2.40;99.90;;;;;;5044638;28;20085;-92
2024/01/21 04:31:25;;;;;;;0.13;0.10;;;2.40;99.90;;;;;;5040151;28;20110;-91
2024/01/21 04:33:51;;;;;;;1.10;0.32;;;2.30;99.80;;;;;;5057156;28;20478;-92
2024/01/21 04:36:18;;;;;;;1.98;0.25;;;2.40;99.90;;;;;;5038116;28;20041;-91
2024/01/21 04:38:44;;;;;;;0.65;0.30;;;2.40;99.90;;;;;;5037895;28;20083;-93
2024/01/21 04:41:11;;;;;;;2.13;0.17;;;2.40;99.90;;;;;;5039089;28;20079;-92
2024/01/21 04:43:37;;;;;;;0.68;0.20;;;2.30;99.90;;;;;;5062046;28;20483;-91
2024/01/21 04:46:03;;;;;;;0.98;0.47;;;2.30;99.90;;;;;;5043428;28;20081;-91
2024/01/21 04:48:28;;;;;;;0.65;0.45;;;2.30;99.90;;;;;;5048301;28;20059;-92
2024/01/21 04:50:54;;;;;;;1.05;0.20;;;2.30;99.90;;;;;;5046881;28;20078;-90
2024/01/21 04:53:20;;;;;;;0.60;0.32;;;2.30;99.90;;;;;;5040163;28;20047;-90
2024/01/21 04:55:45;;;;;;;0.45;0.30;;;2.30;99.90;;;;;;5052947;28;20495;-91
2024/01/21 04:58:11;;;;;;;0.40;0.22;;;2.30;99.70;;;;;;5038903;28;20695;-91
2024/01/21 05:00:37;;;;;;;0.70;0.35;;;2.30;99.90;;;;;;5044105;28;20044;-92
2024/01/21 05:03:03;;;;;;;1.00;0.40;;;2.30;99.90;;;;;;5044863;28;20461;-92
2024/01/21 05:05:29;;;;;;;1.77;0.98;;;2.30;99.90;;;;;;5042493;28;20037;-91
2024/01/21 05:07:54;;;;;;;1.10;0.30;;;2.30;99.80;;;;;;5040903;28;20051;-92
2024/01/21 05:10:20;;;;;;;1.38;0.55;;;2.30;99.70;;;;;;5036736;28;20036;-91
2024/01/21 05:12:46;;;;;;;0.82;0.32;;;2.20;99.70;;;;;;5038073;28;20047;-92
2024/01/21 05:15:12;;;;;;;0.73;0.30;;;2.30;99.70;;;;;;5033958;28;20037;-91
2024/01/21 05:17:40;;;;;;;0.63;0.43;;;2.30;99.90;;;;;;5047580;28;20033;-91
2024/01/21 05:20:08;;;;;;;0.85;0.32;;;2.30;99.90;;;;;;5042202;28;20119;-91
2024/01/21 05:22:34;;;;;;;1.33;0.30;;;2.30;99.70;;;;;;5033195;28;20037;-91
2024/01/21 05:25:00;;;;;;;1.10;0.40;;;2.30;99.40;;;;;;5042403;28;20063;-91
2024/01/21 05:27:25;;;;;;;3.15;0.98;;;2.30;99.90;;;;;;5044952;28;20490;-92
2024/01/21 05:29:51;;;;;;;0.47;0.17;;;2.20;99.50;;;;;;5067643;28;20043;-91
2024/01/21 05:32:17;;;;;;;1.67;0.52;;;2.20;99.60;;;;;;5047452;28;20029;-92
2024/01/21 05:34:43;;;;;;;2.08;0.55;;;2.20;99.90;;;;;;5047649;28;20048;-92
2024/01/21 05:37:08;;;;;;;1.70;0.63;;;2.20;99.90;;;;;;5046085;28;20062;-92
2024/01/21 05:39:34;;;;;;;3.33;0.35;;;2.20;99.70;;;;;;5036667;28;20226;-91
2024/01/21 05:42:01;;;;;;;1.17;0.60;;;2.20;99.80;;;;;;5041584;28;20078;-91
2024/01/21 05:44:27;;;;;;;1.05;0.57;;;2.30;99.60;;;;;;5046480;28;20032;-92
2024/01/21 05:46:53;;;;;;;0.90;0.50;;;2.30;99.70;;;;;;5044080;28;20028;-92
2024/01/21 05:49:19;;;;;;;2.40;0.60;;;2.30;99.90;;;;;;5037969;28;20032;-91
2024/01/21 05:51:44;;;;;;;1.52;0.50;;;2.30;99.90;;;;;;5042729;28;20132;-92
2024/01/21 05:54:11;;;;;;;2.28;0.80;;;2.30;99.90;;;;;;5035635;28;20040;-91
2024/01/21 05:56:36;;;;;;;2.35;0.57;;;2.30;99.70;;;;;;5036595;28;20041;-91
2024/01/21 05:59:02;;;;;;;0.40;0.22;;;2.40;99.90;;;;;;5038683;28;20044;-92
2024/01/21 06:01:28;;;;;;;1.13;0.60;;;2.40;99.30;;;;;;5051256;28;20157;-91
2024/01/21 06:03:54;;;;;;;0.85;0.60;;;2.40;99.70;;;;;;5045531;28;20503;-92
2024/01/21 06:06:19;;;;;;;1.05;0.47;;;2.40;99.50;;;;;;5048280;28;20075;-92
2024/01/21 06:08:45;;;;;;;1.23;0.40;;;2.40;99.40;;;;;;5038111;28;20039;-91
2024/01/21 06:11:11;;;;;;;0.45;0.32;;;2.50;99.80;;;;;;5038327;28;20028;-91
2024/01/21 06:13:37;;;;;;;1.13;0.57;;;2.50;99.90;;;;;;5043889;28;20036;-91
2024/01/21 06:16:03;;;;;;;1.88;0.70;;;2.50;99.80;;;;;;5040191;28;20051;-91
2024/01/21 06:18:29;;;;;;;2.67;0.88;;;2.50;99.90;;;;;;5042182;28;20410;-91
2024/01/21 06:20:55;;;;;;;2.97;0.55;;;2.50;99.90;;;;;;5048184;28;20198;-92
2024/01/21 06:23:21;;;;;;;1.73;0.82;;;2.60;99.70;;;;;;5042549;28;20036;-91
2024/01/21 06:25:46;;;;;;;4.32;1.20;;;2.60;99.90;;;;;;5045067;28;20042;-91
2024/01/21 06:28:12;;;;;;;1.45;0.85;;;2.60;99.40;;;;;;5036135;28;20379;-91
2024/01/21 06:30:38;;;;;;;0.93;0.55;;;2.60;99.90;;;;;;5046452;28;20116;-92
2024/01/21 06:33:04;;;;;;;1.88;1.13;;;2.60;99.90;;;;;;5039902;28;20087;-92
2024/01/21 06:35:30;;;;;;;1.05;0.55;;;2.60;99.90;;;;;;5041317;28;20036;-92
2024/01/21 06:37:56;;;;;;;1.30;0.57;;;2.60;99.90;;;;;;5051577;28;20044;-92
2024/01/21 06:40:22;;;;;;;3.03;1.20;;;2.60;99.90;;;;;;5030186;28;20087;-92
2024/01/21 06:42:48;;;;;;;2.10;0.80;;;2.60;99.90;;;;;;5055974;28;20075;-92
2024/01/21 06:45:14;;;;;;;3.10;0.98;;;2.60;99.40;;;;;;5037643;28;20086;-92
2024/01/21 06:47:41;;;;;;;1.42;0.80;;;2.60;99.80;;;;;;5051362;28;20075;-92
2024/01/21 06:50:07;;;;;;;3.03;0.75;;;2.70;99.30;;;;;;5041305;28;20039;-92
2024/01/21 06:52:32;;;;;;;2.17;0.65;;;2.70;99.90;;;;;;5030948;28;20119;-91
2024/01/21 06:54:59;;;;;;;3.00;1.40;;;2.60;99.70;;;;;;5034979;28;20044;-92
2024/01/21 06:57:25;;;;;;;3.03;1.20;;;2.60;99.90;;;;;;5038134;28;20127;-92
2024/01/21 06:59:51;;;;;;;3.08;0.80;;;2.60;99.90;;;;;;5039052;28;20119;-92
2024/01/21 07:02:17;;;;;;;2.50;1.40;;;2.70;99.20;;;;;;5044034;28;20095;-91
2024/01/21 07:04:43;;;;;;;7.20;1.23;;;2.70;99.70;;;;;;5041594;28;20508;-92
2024/01/21 07:07:08;;;;;;;3.13;1.00;;;2.70;99.00;;;;;;5031893;28;20043;-91
2024/01/21 07:09:34;;;;;;;3.85;1.30;;;2.70;99.90;;;;;;5042424;28;20040;-92
2024/01/21 07:12:00;;;;;;;3.08;0.90;;;2.70;99.40;;;;;;5038402;28;20043;-91
2024/01/21 07:14:26;;;;;;;3.78;1.20;;;2.70;99.70;;;;;;5038880;28;20044;-91
2024/01/21 07:16:52;;;;;;;2.65;0.90;;;2.70;99.50;;;;;;5035621;28;20123;-91
2024/01/21 07:19:17;;;;;;;1.63;0.80;;;2.70;99.80;;;;;;5047620;28;20535;-91
2024/01/21 07:21:43;;;;;;;3.47;1.48;;;2.70;99.50;;;;;;5039861;28;20028;-90
2024/01/21 07:24:09;;;;;;;1.70;0.80;;;2.70;99.90;;;;;;5032505;28;20040;-91
2024/01/21 07:26:35;;;;;;;2.60;1.02;;;2.70;99.90;;;;;;5054171;28;20044;-91
2024/01/21 07:29:01;;;;;;;4.15;1.40;;;2.70;99.90;;;;;;5058184;28;20119;-91
2024/01/21 07:31:26;;;;;;;2.47;0.98;;;2.70;99.80;;;;;;5044512;28;20143;-90
2024/01/21 07:33:52;;;;;;;1.77;1.15;;;2.70;99.30;;;;;;5059634;28;20036;-90
2024/01/21 07:36:18;;;;;;;5.32;1.40;;;2.70;99.60;;;;;;5035826;28;20054;-92
2024/01/21 07:38:44;;;;;;;2.50;1.10;;;2.60;99.90;;;;;;5047454;28;20064;-92
2024/01/21 07:41:10;;;;;;;2.97;1.45;;;2.60;99.70;;;;;;5030486;28;20074;-93
2024/01/21 07:43:36;;;;;;;2.85;0.90;;;2.70;99.80;;;;;;5038819;28;20080;-92
2024/01/21 07:46:02;;;;;;;3.53;1.30;;;2.70;99.20;;;;;;5035611;28;20200;-91
2024/01/21 07:48:28;;;;;;;3.85;1.20;;;2.70;99.90;;;;;;5056267;28;20478;-91
2024/01/21 07:50:53;;;;;;;4.60;1.40;;;2.60;99.70;;;;;;5039152;28;20033;-92
2024/01/21 07:53:19;;;;;;;6.32;1.75;;;2.60;99.80;;;;;;5032245;28;20029;-90
2024/01/21 07:55:45;;;;;;;2.92;0.95;;;2.70;99.20;;;;;;5041107;28;20032;-92
2024/01/21 07:58:15;;;;;;;2.25;1.20;;;2.60;99.90;;;;;;5039348;28;20041;-91
2024/01/21 08:00:41;;;;;;;3.88;1.17;;;2.60;99.70;;;;;;5051896;28;20509;-91
2024/01/21 08:03:07;;;;;;;2.63;1.10;;;2.60;99.20;;;;;;5035102;28;20379;-91
2024/01/21 08:05:39;;;;;;;3.47;1.02;;;2.60;99.50;;;;;;5032219;28;20044;-91
2024/01/21 08:08:05;;;;;;;2.50;0.88;;;2.60;99.80;;;;;;5048687;28;20032;-92
2024/01/21 08:10:31;;;;;;;3.50;1.15;;;2.60;99.70;;;;;;5041219;28;20035;-92
2024/01/21 08:12:57;;;;;;;2.55;1.08;;;2.60;99.90;;;;;;5037683;28;20056;-91
2024/01/21 08:15:22;;;;;;;3.53;1.15;;;2.60;99.90;;;;;;5040922;28;20068;-91
2024/01/21 08:17:48;;;;;;;2.38;1.30;;;2.60;99.90;;;;;;5038217;28;20043;-92
2024/01/21 08:20:14;;;;;;;2.45;0.98;;;2.60;99.70;;;;;;5044554;28;20109;-91
2024/01/21 08:22:40;;;;;;;2.83;1.45;;;2.70;99.90;;;;;;5041136;28;20041;-91
2024/01/21 08:25:10;;;;;;;3.03;1.42;;;2.70;99.90;;;;;;5046573;28;20486;-92
2024/01/21 08:27:39;;;;;;;2.97;1.17;;;2.70;99.90;;;;;;5042425;28;20043;-89
2024/01/21 08:30:05;;;;;;;1.98;1.20;;;2.70;99.90;;;;;;5047831;28;20037;-89
2024/01/21 08:32:31;;;;;;;4.03;1.40;;;2.70;99.90;;;;;;5038121;28;20041;-89
2024/01/21 08:34:57;;;;;;;2.95;0.88;;;2.70;99.90;;;;;;5045060;28;20043;-86
2024/01/21 08:37:22;;;;;;;2.45;1.05;;;2.70;99.90;;;;;;5041463;28;20051;-88
2024/01/21 08:39:48;;;;;;;6.05;2.38;;;2.80;99.90;;;;;;5037650;28;20036;-88
2024/01/21 08:42:14;;;;;;;2.58;1.60;;;2.80;99.90;;;;;;5029990;28;20086;-90
2024/01/21 08:44:40;;;;;;;2.63;0.85;;;2.80;99.90;;;;;;5029029;28;20040;-90
2024/01/21 08:47:05;;;;;;;2.03;1.20;;;2.80;99.90;;;;;;5052928;28;20029;-89
2024/01/21 08:49:31;;;;;;;4.45;1.08;;;2.80;99.90;;;;;;5047081;28;20068;-90
2024/01/21 08:51:57;;;;;;;3.47;1.58;;;2.80;99.90;;;;;;5043503;28;20036;-91
2024/01/21 08:54:23;;;;;;;3.25;1.48;;;2.80;99.90;;;;;;5043094;28;20041;-90
2024/01/21 08:56:49;;;;;;;4.50;1.60;;;2.80;99.90;;;;;;5041298;28;20042;-89
2024/01/21 08:59:14;;;;;;;4.72;1.88;;;2.80;99.90;;;;;;5051035;28;20060;-86
2024/01/21 09:01:40;;;;;;;5.35;1.67;;;2.80;99.90;;;;;;5039329;28;20066;-85
2024/01/21 09:04:06;;;;;;;1.90;0.85;;;2.80;99.90;;;;;;5041024;28;20047;-87
2024/01/21 09:06:31;;;;;;;2.10;1.08;;;2.80;99.90;;;;;;5037429;28;20036;-86
2024/01/21 09:08:57;;;;;;;3.88;1.10;;;2.80;99.90;;;;;;5037013;28;20035;-86
2024/01/21 09:11:24;;;;;;;1.92;1.00;;;2.80;99.90;;;;;;5033005;28;20138;-85
2024/01/21 09:13:50;;;;;;;5.13;1.58;;;2.90;99.90;;;;;;5051893;28;20048;-87
2024/01/21 09:16:19;;;;;;;4.55;1.45;;;2.90;99.90;;;;;;5035509;28;20061;-85
2024/01/21 09:18:46;;;;;;;6.43;1.40;;;2.90;99.90;;;;;;5037130;28;20075;-87
2024/01/21 09:21:12;;;;;;;3.28;1.23;;;3.00;99.90;;;;;;5060220;28;20079;-91
2024/01/21 09:23:38;;;;;;;2.30;1.35;;;3.00;99.90;;;;;;5051837;28;20293;-91
2024/01/21 09:26:04;;;;;;;2.35;1.10;;;3.00;99.90;;;;;;5052443;28;20037;-91
2024/01/21 09:28:30;;;;;;;1.52;1.13;;;3.10;99.90;;;;;;5035507;28;20044;-89
2024/01/21 09:30:55;;;;;;;3.03;1.10;;;3.10;99.90;;;;;;5056231;28;20048;-89
2024/01/21 09:33:21;;;;;;;1.80;1.27;;;3.10;99.90;;;;;;5063709;28;20036;-89
2024/01/21 09:35:49;;;;;;;3.53;1.60;;;3.10;99.90;;;;;;5098605;22;20040;-85
2024/01/21 09:38:18;;;;;;;4.03;1.95;;;3.10;99.90;;;;;;5069347;28;20038;-85
2024/01/21 09:40:46;;;;;;;2.92;1.20;;;3.10;99.90;;;;;;5103510;28;20428;-83
2024/01/21 09:43:13;;;;;;;2.88;1.25;;;3.10;99.90;;;;;;5066403;28;20036;-83
2024/01/21 09:45:42;;;;;;;2.95;1.02;;;3.10;99.90;;;;;;5074786;28;20515;-82
2024/01/21 09:48:09;;;;;;;2.25;1.08;;;3.20;99.90;;;;;;5073208;28;20028;-84
2024/01/21 09:50:36;;;;;;;2.97;1.67;;;3.20;99.90;;;;;;5072069;28;20119;-83
2024/01/21 09:53:03;;;;;;;3.85;1.77;;;3.30;99.90;;;;;;5091964;28;20165;-83
2024/01/21 09:55:28;;;;;;;3.80;1.77;;;3.30;99.90;;;;;;5071331;28;20035;-84
2024/01/21 09:57:56;;;;;;;3.00;1.33;;;3.30;99.90;;;;;;5088671;28;20454;-83
2024/01/21 10:00:22;;;;;;;2.13;0.88;;;3.40;99.90;;;;;;5069858;28;20039;-83
2024/01/21 10:02:50;;;;;;;5.63;1.63;;;3.40;99.90;;;;;;5066291;28;20046;-83
2024/01/21 10:05:16;;;;;;;10.27;1.92;;;3.40;99.90;;;;;;5071391;28;20375;-84
2024/01/21 10:07:43;;;;;;;3.88;1.60;;;3.40;99.90;;;;;;5088884;28;20122;-84
2024/01/21 10:10:12;;;;;;;3.08;1.55;;;3.50;99.90;;;;;;5071995;28;20028;-83
2024/01/21 10:12:38;;;;;;;2.65;1.13;;;3.50;99.90;;;;;;5101807;28;20426;-83
2024/01/21 10:15:04;;;;;;;2.45;1.10;;;3.50;99.90;;;;;;5098774;28;20071;-83
2024/01/21 10:17:31;;;;;;;3.58;1.50;;;3.50;99.90;;;;;;5075569;28;20127;-85
2024/01/21 10:19:58;;;;;;;4.72;1.92;;;3.60;99.90;;;;;;5072466;28;20240;-83
2024/01/21 10:22:25;;;;;;;5.60;2.05;;;3.60;99.90;;;;;;5072830;28;20069;-83
2024/01/21 10:24:51;;;;;;;3.15;1.60;;;3.60;99.90;;;;;;5087407;28;20486;-83
2024/01/21 10:27:17;;;;;;;3.85;1.98;;;3.70;99.90;;;;;;5070400;28;20031;-82
2024/01/21 10:29:44;;;;;;;2.45;1.23;;;3.70;99.90;;;;;;5070614;28;20063;-84
2024/01/21 10:32:15;;;;;;;2.45;0.90;;;3.80;99.90;;;;;;5085523;28;20085;-83
2024/01/21 10:34:45;;;;;;;4.90;1.67;;;3.80;99.90;;;;;;5103618;28;20035;-83
2024/01/21 10:37:17;;;;;;;3.17;1.92;;;3.80;99.90;;;;;;5070306;28;20040;-83
2024/01/21 10:39:47;;;;;;;6.20;1.50;;;3.80;99.90;;;;;;5068873;28;20134;-82
2024/01/21 10:42:14;;;;;;;2.60;1.27;;;3.80;99.90;;;;;;5083352;28;20154;-82
2024/01/21 10:44:40;;;;;;;4.28;1.80;;;3.80;99.90;;;;;;5086178;28;20074;-83
2024/01/21 10:47:08;;;;;;;2.97;1.48;;;3.80;99.90;;;;;;5086028;28;20646;-82
2024/01/21 10:49:35;;;;;;;7.45;1.55;;;3.80;99.90;;;;;;5086898;28;20444;-84
2024/01/21 10:52:01;;;;;;;4.03;1.70;;;3.90;99.90;;;;;;5085595;28;20115;-83
2024/01/21 10:54:28;;;;;;;4.00;1.90;;;3.90;99.90;;;;;;5067842;28;20036;-83
2024/01/21 10:56:54;;;;;;;1.80;0.93;;;3.90;99.90;;;;;;5086121;28;20070;-84
2024/01/21 10:59:21;;;;;;;5.15;1.45;;;4.00;99.90;;;;;;5069733;28;20042;-84
2024/01/21 11:01:56;;;;;;;3.75;1.30;;;4.00;99.90;;;;;;5068576;28;20047;-83
2024/01/21 11:04:22;;;;;;;5.15;2.40;;;4.00;99.90;;;;;;5069731;28;20048;-83
2024/01/21 11:06:51;;;;;;;2.72;1.70;;;4.00;99.90;;;;;;5068777;28;20032;-83
2024/01/21 11:09:23;;;;;;;3.80;1.83;;;4.00;99.90;;;;;;5085880;28;20043;-83
2024/01/21 11:11:50;;;;;;;2.72;1.17;;;4.00;99.90;;;;;;5066283;28;20032;-83
2024/01/21 11:14:30;;;;;;;4.60;2.47;;;4.00;99.90;;;;;;5086857;28;20040;-83
2024/01/21 11:16:57;;;;;;;3.95;1.83;;;4.00;99.90;;;;;;5082381;28;20110;-84
2024/01/21 11:19:24;;;;;;;2.38;1.30;;;4.10;99.90;;;;;;5069605;28;20567;-83
2024/01/21 11:21:54;;;;;;;7.93;3.83;;;4.10;99.90;;;;;;5087129;28;20124;-82
2024/01/21 11:24:27;;;;;;;2.70;1.52;;;4.10;99.90;;;;;;5087004;28;20036;-82
2024/01/21 11:26:53;;;;;;;2.70;1.45;;;4.10;99.90;;;;;;5081401;28;20028;-83
2024/01/21 11:29:24;;;;;;;3.95;1.88;;;4.20;99.90;;;;;;5086149;28;20386;-83
2024/01/21 11:32:10;;;;;;;3.33;1.77;;;4.20;99.90;;;;;;5087310;28;20293;-84
2024/01/21 11:34:40;;;;;;;3.15;1.55;;;4.20;99.90;;;;;;5087240;28;20524;-83
2024/01/21 11:37:15;;;;;;;2.72;1.40;;;4.20;99.90;;;;;;5084789;28;20093;-82
2024/01/21 11:39:42;;;;;;;1.38;0.80;;;4.20;99.90;;;;;;5086367;28;20050;-84
2024/01/21 11:42:08;;;;;;;3.92;1.50;;;4.20;99.90;;;;;;5069029;28;20028;-83
2024/01/21 11:44:35;;;;;;;2.30;0.95;;;4.30;99.90;;;;;;5068966;28;20040;-83
2024/01/21 11:47:03;;;;;;;2.15;0.70;;;4.30;99.90;;;;;;5069598;28;20440;-82
2024/01/21 11:49:33;;;;;;;4.20;1.98;;;4.20;99.90;;;;;;5066661;28;20054;-82
2024/01/21 11:52:00;;;;;;;2.03;1.20;;;4.30;99.90;;;;;;5069715;28;20026;-82
2024/01/21 11:54:26;;;;;;;3.03;1.40;;;4.30;99.90;;;;;;5072269;28;20047;-83
2024/01/21 11:56:55;;;;;;;3.20;1.02;;;4.30;99.90;;;;;;5076892;28;20035;-83
2024/01/21 11:59:21;;;;;;;2.92;1.10;;;4.30;99.90;;;;;;5073781;28;20040;-82
2024/01/21 12:01:48;;;;;;;5.97;1.77;;;4.30;99.90;;;;;;5062060;28;20058;-83
2024/01/21 12:04:14;;;;;;;2.80;1.30;;;4.30;99.90;;;;;;5073253;28;20040;-82
2024/01/21 12:06:50;;;;;;;4.32;1.17;;;4.30;99.90;;;;;;5095197;28;20047;-83
2024/01/21 12:09:16;;;;;;;3.33;1.08;;;4.30;99.90;;;;;;5089952;28;20312;-82
2024/01/21 12:11:42;;;;;;;2.28;1.05;;;4.40;99.90;;;;;;5075108;28;20043;-82
2024/01/21 12:14:12;;;;;;;4.22;1.88;;;4.40;99.90;;;;;;5077159;28;20039;-83
2024/01/21 12:16:39;;;;;;;3.78;1.42;;;4.40;99.90;;;;;;5071278;28;20822;-82
2024/01/21 12:19:06;;;;;;;4.15;1.70;;;4.40;99.90;;;;;;5072386;28;20603;-83
2024/01/21 12:21:32;;;;;;;3.35;1.42;;;4.40;99.90;;;;;;5089305;28;20493;-83
2024/01/21 12:23:59;;;;;;;3.88;1.40;;;4.40;99.90;;;;;;5090598;28;20055;-83
2024/01/21 12:26:25;;;;;;;4.60;1.55;;;4.30;99.90;;;;;;5072083;28;20123;-83
2024/01/21 12:29:05;;;;;;;1.70;0.95;;;4.40;99.90;;;;;;5092103;28;20367;-84
2024/01/21 12:31:36;;;;;;;3.33;1.70;;;4.40;99.90;;;;;;5099986;28;20092;-83
2024/01/21 12:34:15;;;;;;;2.88;1.23;;;4.40;99.90;;;;;;5079937;28;20414;-83
2024/01/21 12:36:44;;;;;;;2.15;1.13;;;4.40;99.90;;;;;;5086337;28;20130;-83
2024/01/21 12:39:11;;;;;;;3.03;1.60;;;4.40;99.90;;;;;;5083976;28;20552;-83
2024/01/21 12:41:37;;;;;;;2.97;1.38;;;4.40;99.90;;;;;;5068742;28;20252;-83
2024/01/21 12:44:03;;;;;;;3.63;1.13;;;4.40;99.90;;;;;;5067038;28;20277;-83
2024/01/21 12:46:30;;;;;;;2.08;1.13;;;4.40;99.90;;;;;;5078720;28;20040;-83
2024/01/21 12:48:55;;;;;;;3.42;1.20;;;4.40;99.90;;;;;;5079692;28;20070;-83
2024/01/21 12:51:22;;;;;;;3.22;1.52;;;4.40;99.90;;;;;;5077338;28;20064;-84
2024/01/21 12:53:50;;;;;;;4.97;2.28;;;4.40;99.90;;;;;;5069802;28;20040;-86
2024/01/21 12:56:17;;;;;;;3.53;1.25;;;4.50;99.90;;;;;;5084151;28;20033;-83